sensor_id;sensor_type;location;lat;lon;timestamp;pressure;altitude;pressure_sealevel;temperature;humidity
29839;BME280;18669;53.356;-1.464;2022-07-10T00:01:57;101912.44;;;18.21;100.00
29839;BME280;18669;53.356;-1.464;2022-07-10T00:04:24;101916.94;;;18.19;100.00
29839;BME280;18669;53.356;-1.464;2022-07-10T00:06:50;101925.19;;;18.11;100.00
29839;BME280;18669;53.356;-1.464;2022-07-10T00:09:20;101917.78;;;18.19;100.00
29839;BME280;18669;53.356;-1.464;2022-07-10T00:11:52;101918.59;;;18.23;100.00
29839;BME280;18669;53.356;-1.464;2022-07-10T00:15:21;101918.59;;;18.22;100.00
29839;BME280;18669;53.356;-1.464;2022-07-10T00:17:58;101902.41;;;18.01;100.00
29839;BME280;18669;53.356;-1.464;2022-07-10T00:20:24;101906.53;;;17.81;100.00
29839;BME280;18669;53.356;-1.464;2022-07-10T00:26:01;101899.75;;;17.71;100.00
29839;BME280;18669;53.356;-1.464;2022-07-10T00:28:33;101911.41;;;17.67;100.00
29839;BME280;18669;53.356;-1.464;2022-07-10T00:31:00;101901.75;;;17.63;100.00
29839;BME280;18669;53.356;-1.464;2022-07-10T00:33:26;101894.88;;;17.55;100.00
29839;BME280;18669;53.356;-1.464;2022-07-10T00:35:53;101896.84;;;17.49;100.00
29839;BME280;18669;53.356;-1.464;2022-07-10T00:38:22;101881.72;;;17.51;100.00
29839;BME280;18669;53.356;-1.464;2022-07-10T00:40:49;101890.03;;;17.38;100.00
29839;BME280;18669;53.356;-1.464;2022-07-10T00:43:25;101877.50;;;17.43;100.00
29839;BME280;18669;53.356;-1.464;2022-07-10T00:46:10;101886.75;;;17.30;100.00
29839;BME280;18669;53.356;-1.464;2022-07-10T00:49:08;101888.88;;;17.49;100.00
29839;BME280;18669;53.356;-1.464;2022-07-10T00:51:37;101888.59;;;17.28;100.00
29839;BME280;18669;53.356;-1.464;2022-07-10T00:54:07;101889.09;;;17.41;100.00
29839;BME280;18669;53.356;-1.464;2022-07-10T00:56:36;101857.59;;;17.27;100.00
29839;BME280;18669;53.356;-1.464;2022-07-10T00:59:03;101878.03;;;17.25;100.00
29839;BME280;18669;53.356;-1.464;2022-07-10T01:01:35;101873.88;;;17.14;100.00
29839;BME280;18669;53.356;-1.464;2022-07-10T01:04:05;101871.41;;;17.08;100.00
29839;BME280;18669;53.356;-1.464;2022-07-10T01:06:47;101869.63;;;17.09;100.00
29839;BME280;18669;53.356;-1.464;2022-07-10T01:09:13;101857.41;;;17.02;100.00
29839;BME280;18669;53.356;-1.464;2022-07-10T01:11:43;101861.81;;;17.03;100.00
29839;BME280;18669;53.356;-1.464;2022-07-10T01:14:42;101857.69;;;17.22;100.00
29839;BME280;18669;53.356;-1.464;2022-07-10T01:17:11;101854.44;;;17.12;100.00
29839;BME280;18669;53.356;-1.464;2022-07-10T01:22:54;101860.91;;;17.04;100.00
29839;BME280;18669;53.356;-1.464;2022-07-10T01:25:40;101855.59;;;17.04;100.00
29839;BME280;18669;53.356;-1.464;2022-07-10T01:28:46;101856.09;;;16.83;100.00
29839;BME280;18669;53.356;-1.464;2022-07-10T01:31:17;101860.53;;;16.83;100.00
29839;BME280;18669;53.356;-1.464;2022-07-10T01:33:48;101859.91;;;16.73;100.00
29839;BME280;18669;53.356;-1.464;2022-07-10T01:36:14;101857.34;;;16.70;100.00
29839;BME280;18669;53.356;-1.464;2022-07-10T01:38:44;101856.56;;;16.66;100.00
29839;BME280;18669;53.356;-1.464;2022-07-10T01:41:10;101853.84;;;16.68;100.00
29839;BME280;18669;53.356;-1.464;2022-07-10T01:43:57;101854.22;;;16.87;100.00
29839;BME280;18669;53.356;-1.464;2022-07-10T01:46:59;101836.06;;;16.72;100.00
29839;BME280;18669;53.356;-1.464;2022-07-10T01:49:55;101849.16;;;16.78;100.00
29839;BME280;18669;53.356;-1.464;2022-07-10T01:52:22;101840.00;;;16.57;100.00
29839;BME280;18669;53.356;-1.464;2022-07-10T01:54:54;101851.94;;;16.73;100.00
29839;BME280;18669;53.356;-1.464;2022-07-10T02:16:45;101841.88;;;16.17;100.00
29839;BME280;18669;53.356;-1.464;2022-07-10T02:19:32;101806.72;;;16.07;100.00
29839;BME280;18669;53.356;-1.464;2022-07-10T02:22:05;101835.56;;;16.21;100.00
29839;BME280;18669;53.356;-1.464;2022-07-10T02:24:34;101828.91;;;16.04;100.00
29839;BME280;18669;53.356;-1.464;2022-07-10T02:27:03;101832.56;;;15.99;100.00
29839;BME280;18669;53.356;-1.464;2022-07-10T02:29:30;101828.31;;;15.91;100.00
29839;BME280;18669;53.356;-1.464;2022-07-10T02:31:57;101825.63;;;15.93;100.00
29839;BME280;18669;53.356;-1.464;2022-07-10T02:34:24;101824.75;;;15.92;100.00
29839;BME280;18669;53.356;-1.464;2022-07-10T02:36:50;101820.41;;;15.90;100.00
29839;BME280;18669;53.356;-1.464;2022-07-10T02:39:16;101820.47;;;15.85;100.00
29839;BME280;18669;53.356;-1.464;2022-07-10T02:41:45;101788.13;;;15.69;100.00
29839;BME280;18669;53.356;-1.464;2022-07-10T02:44:12;101813.59;;;15.76;100.00
29839;BME280;18669;53.356;-1.464;2022-07-10T02:46:41;101790.81;;;15.68;100.00
29839;BME280;18669;53.356;-1.464;2022-07-10T02:49:08;101794.63;;;15.56;100.00
29839;BME280;18669;53.356;-1.464;2022-07-10T02:51:47;101786.25;;;15.73;100.00
29839;BME280;18669;53.356;-1.464;2022-07-10T02:54:16;101799.66;;;15.68;100.00
29839;BME280;18669;53.356;-1.464;2022-07-10T02:56:46;101818.97;;;15.73;100.00
29839;BME280;18669;53.356;-1.464;2022-07-10T02:59:16;101821.59;;;15.75;100.00
29839;BME280;18669;53.356;-1.464;2022-07-10T03:01:43;101806.00;;;15.59;100.00
29839;BME280;18669;53.356;-1.464;2022-07-10T03:04:09;101816.63;;;15.59;100.00
29839;BME280;18669;53.356;-1.464;2022-07-10T03:06:39;101813.13;;;15.59;100.00
29839;BME280;18669;53.356;-1.464;2022-07-10T03:09:06;101815.72;;;15.62;100.00
29839;BME280;18669;53.356;-1.464;2022-07-10T03:11:32;101818.38;;;15.60;100.00
29839;BME280;18669;53.356;-1.464;2022-07-10T03:14:02;101811.38;;;15.56;100.00
29839;BME280;18669;53.356;-1.464;2022-07-10T03:16:32;101808.47;;;15.69;100.00
29839;BME280;18669;53.356;-1.464;2022-07-10T03:18:58;101819.53;;;15.48;100.00
29839;BME280;18669;53.356;-1.464;2022-07-10T03:21:28;101812.47;;;15.47;100.00
29839;BME280;18669;53.356;-1.464;2022-07-10T03:23:59;101809.13;;;15.39;100.00
29839;BME280;18669;53.356;-1.464;2022-07-10T03:26:25;101813.44;;;15.43;100.00
29839;BME280;18669;53.356;-1.464;2022-07-10T03:28:58;101796.75;;;15.40;100.00
29839;BME280;18669;53.356;-1.464;2022-07-10T03:31:29;101806.31;;;15.47;100.00
29839;BME280;18669;53.356;-1.464;2022-07-10T03:33:56;101804.72;;;15.38;100.00
29839;BME280;18669;53.356;-1.464;2022-07-10T03:36:49;101805.19;;;15.57;100.00
29839;BME280;18669;53.356;-1.464;2022-07-10T03:39:27;101783.13;;;15.14;100.00
29839;BME280;18669;53.356;-1.464;2022-07-10T03:41:53;101793.91;;;15.47;100.00
29839;BME280;18669;53.356;-1.464;2022-07-10T03:44:19;101798.84;;;15.24;100.00
29839;BME280;18669;53.356;-1.464;2022-07-10T03:46:46;101792.81;;;15.17;100.00
29839;BME280;18669;53.356;-1.464;2022-07-10T03:49:15;101774.41;;;15.11;100.00
29839;BME280;18669;53.356;-1.464;2022-07-10T03:51:41;101793.91;;;15.06;100.00
29839;BME280;18669;53.356;-1.464;2022-07-10T03:54:21;101790.13;;;15.18;100.00
29839;BME280;18669;53.356;-1.464;2022-07-10T03:56:51;101762.34;;;14.94;100.00
29839;BME280;18669;53.356;-1.464;2022-07-10T03:59:36;101793.88;;;15.08;100.00
29839;BME280;18669;53.356;-1.464;2022-07-10T04:02:02;101779.66;;;15.12;100.00
29839;BME280;18669;53.356;-1.464;2022-07-10T04:04:28;101785.91;;;15.10;100.00
29839;BME280;18669;53.356;-1.464;2022-07-10T04:06:55;101782.41;;;15.07;100.00
29839;BME280;18669;53.356;-1.464;2022-07-10T04:09:22;101780.59;;;15.08;100.00
29839;BME280;18669;53.356;-1.464;2022-07-10T04:14:38;101789.75;;;14.95;100.00
29839;BME280;18669;53.356;-1.464;2022-07-10T04:28:14;101778.28;;;14.93;100.00
29839;BME280;18669;53.356;-1.464;2022-07-10T04:30:41;101780.09;;;14.90;100.00
29839;BME280;18669;53.356;-1.464;2022-07-10T04:37:23;101786.19;;;14.96;100.00
29839;BME280;18669;53.356;-1.464;2022-07-10T04:39:49;101787.88;;;14.98;100.00
29839;BME280;18669;53.356;-1.464;2022-07-10T04:42:15;101785.34;;;14.92;100.00
29839;BME280;18669;53.356;-1.464;2022-07-10T04:44:42;101787.94;;;14.95;100.00
29839;BME280;18669;53.356;-1.464;2022-07-10T04:47:08;101780.94;;;14.93;100.00
29839;BME280;18669;53.356;-1.464;2022-07-10T04:49:34;101780.06;;;14.92;100.00
29839;BME280;18669;53.356;-1.464;2022-07-10T04:52:01;101769.53;;;14.89;100.00
29839;BME280;18669;53.356;-1.464;2022-07-10T04:54:34;101767.41;;;15.06;100.00
29839;BME280;18669;53.356;-1.464;2022-07-10T04:57:00;101761.69;;;14.84;100.00
29839;BME280;18669;53.356;-1.464;2022-07-10T04:59:27;101766.84;;;14.90;100.00
29839;BME280;18669;53.356;-1.464;2022-07-10T05:01:56;101772.00;;;14.98;100.00
29839;BME280;18669;53.356;-1.464;2022-07-10T05:04:22;101767.41;;;15.06;100.00
29839;BME280;18669;53.356;-1.464;2022-07-10T05:06:51;101774.53;;;15.03;100.00
29839;BME280;18669;53.356;-1.464;2022-07-10T05:09:18;101757.00;;;14.97;100.00
29839;BME280;18669;53.356;-1.464;2022-07-10T05:11:47;101768.19;;;15.10;100.00
29839;BME280;18669;53.356;-1.464;2022-07-10T05:14:13;101767.16;;;15.17;100.00
29839;BME280;18669;53.356;-1.464;2022-07-10T05:16:40;101767.84;;;15.27;100.00
29839;BME280;18669;53.356;-1.464;2022-07-10T05:19:06;101765.16;;;15.29;100.00
29839;BME280;18669;53.356;-1.464;2022-07-10T05:21:32;101762.44;;;15.32;100.00
29839;BME280;18669;53.356;-1.464;2022-07-10T05:23:59;101759.63;;;15.38;100.00
29839;BME280;18669;53.356;-1.464;2022-07-10T05:26:25;101762.16;;;15.44;100.00
29839;BME280;18669;53.356;-1.464;2022-07-10T05:28:54;101763.50;;;15.62;100.00
29839;BME280;18669;53.356;-1.464;2022-07-10T05:31:21;101754.13;;;15.49;100.00
29839;BME280;18669;53.356;-1.464;2022-07-10T05:33:47;101751.28;;;15.55;100.00
29839;BME280;18669;53.356;-1.464;2022-07-10T05:36:13;101752.88;;;15.64;100.00
29839;BME280;18669;53.356;-1.464;2022-07-10T05:38:40;101757.91;;;15.75;100.00
29839;BME280;18669;53.356;-1.464;2022-07-10T05:46:20;101756.19;;;16.10;100.00
29839;BME280;18669;53.356;-1.464;2022-07-10T06:27:15;101755.16;;;17.97;100.00
29839;BME280;18669;53.356;-1.464;2022-07-10T06:34:48;101740.00;;;18.26;100.00
29839;BME280;18669;53.356;-1.464;2022-07-10T06:37:28;101745.59;;;18.44;100.00
29839;BME280;18669;53.356;-1.464;2022-07-10T06:44:34;101742.16;;;18.89;100.00
29839;BME280;18669;53.356;-1.464;2022-07-10T06:47:49;101743.81;;;18.92;100.00
29839;BME280;18669;53.356;-1.464;2022-07-10T07:02:40;101742.91;;;19.83;100.00
29839;BME280;18669;53.356;-1.464;2022-07-10T07:08:59;101723.88;;;19.93;100.00
29839;BME280;18669;53.356;-1.464;2022-07-10T07:11:25;101736.50;;;20.10;100.00
29839;BME280;18669;53.356;-1.464;2022-07-10T07:13:58;101745.47;;;20.30;100.00
29839;BME280;18669;53.356;-1.464;2022-07-10T07:16:42;101743.16;;;20.62;100.00
29839;BME280;18669;53.356;-1.464;2022-07-10T07:20:35;101731.09;;;20.72;100.00
29839;BME280;18669;53.356;-1.464;2022-07-10T07:23:51;101720.09;;;20.80;89.12
29839;BME280;18669;53.356;-1.464;2022-07-10T07:26:54;101717.78;;;20.91;88.63
29839;BME280;18669;53.356;-1.464;2022-07-10T07:29:27;101745.97;;;21.17;95.72
29839;BME280;18669;53.356;-1.464;2022-07-10T07:32:34;101739.00;;;21.33;84.73
29839;BME280;18669;53.356;-1.464;2022-07-10T07:35:21;101730.16;;;21.50;84.06
29839;BME280;18669;53.356;-1.464;2022-07-10T07:49:42;101700.38;;;22.10;64.34
29839;BME280;18669;53.356;-1.464;2022-07-10T07:52:20;101712.56;;;22.16;63.15
29839;BME280;18669;53.356;-1.464;2022-07-10T07:55:10;101716.88;;;22.36;63.46
29839;BME280;18669;53.356;-1.464;2022-07-10T07:57:37;101713.44;;;22.52;63.17
29839;BME280;18669;53.356;-1.464;2022-07-10T08:00:05;101718.66;;;22.71;60.09
29839;BME280;18669;53.356;-1.464;2022-07-10T08:06:08;101715.31;;;23.31;60.70
29839;BME280;18669;53.356;-1.464;2022-07-10T08:09:29;101711.56;;;23.96;62.16
29839;BME280;18669;53.356;-1.464;2022-07-10T08:12:42;101710.47;;;24.58;52.23
29839;BME280;18669;53.356;-1.464;2022-07-10T08:15:19;101705.94;;;25.02;53.00
29839;BME280;18669;53.356;-1.464;2022-07-10T08:17:55;101704.75;;;25.49;49.54
29839;BME280;18669;53.356;-1.464;2022-07-10T08:20:27;101704.44;;;25.94;47.09
29839;BME280;18669;53.356;-1.464;2022-07-10T08:23:05;101707.88;;;26.73;47.11
29839;BME280;18669;53.356;-1.464;2022-07-10T08:25:41;101695.91;;;27.39;47.25
29839;BME280;18669;53.356;-1.464;2022-07-10T08:28:59;101699.06;;;27.93;44.96
29839;BME280;18669;53.356;-1.464;2022-07-10T08:31:17;101697.41;;;29.06;38.97
29839;BME280;18669;53.356;-1.464;2022-07-10T08:33:57;101692.13;;;29.04;39.12
29839;BME280;18669;53.356;-1.464;2022-07-10T08:40:26;101695.13;;;29.87;37.75
29839;BME280;18669;53.356;-1.464;2022-07-10T08:43:03;101688.50;;;30.23;37.30
29839;BME280;18669;53.356;-1.464;2022-07-10T08:46:02;101687.56;;;30.43;35.74
29839;BME280;18669;53.356;-1.464;2022-07-10T08:52:58;101680.47;;;31.13;33.59
29839;BME280;18669;53.356;-1.464;2022-07-10T08:56:39;101678.75;;;32.10;32.00
29839;BME280;18669;53.356;-1.464;2022-07-10T09:04:06;101664.47;;;32.64;31.77
29839;BME280;18669;53.356;-1.464;2022-07-10T09:07:42;101663.22;;;33.04;31.38
29839;BME280;18669;53.356;-1.464;2022-07-10T09:11:28;101663.16;;;33.50;30.33
29839;BME280;18669;53.356;-1.464;2022-07-10T09:18:31;101661.41;;;33.67;30.69
29839;BME280;18669;53.356;-1.464;2022-07-10T09:21:35;101650.16;;;33.44;30.60
29839;BME280;18669;53.356;-1.464;2022-07-10T09:24:34;101652.06;;;34.57;30.69
29839;BME280;18669;53.356;-1.464;2022-07-10T09:27:55;101648.28;;;34.24;30.13
29839;BME280;18669;53.356;-1.464;2022-07-10T09:34:07;101624.50;;;35.51;29.44
29839;BME280;18669;53.356;-1.464;2022-07-10T09:40:02;101641.25;;;35.32;28.79
29839;BME280;18669;53.356;-1.464;2022-07-10T09:43:25;101632.78;;;36.08;26.77
29839;BME280;18669;53.356;-1.464;2022-07-10T09:46:35;101615.31;;;36.49;25.80
29839;BME280;18669;53.356;-1.464;2022-07-10T09:49:33;101634.03;;;36.37;26.62
29839;BME280;18669;53.356;-1.464;2022-07-10T09:52:32;101621.34;;;36.36;27.64
29839;BME280;18669;53.356;-1.464;2022-07-10T09:55:47;101633.22;;;36.28;27.38
29839;BME280;18669;53.356;-1.464;2022-07-10T09:59:25;101637.31;;;35.34;28.47
29839;BME280;18669;53.356;-1.464;2022-07-10T10:07:05;101628.38;;;35.98;27.33
29839;BME280;18669;53.356;-1.464;2022-07-10T10:09:53;101622.38;;;35.87;28.44
29839;BME280;18669;53.356;-1.464;2022-07-10T10:13:11;101623.53;;;36.09;28.44
29839;BME280;18669;53.356;-1.464;2022-07-10T10:15:51;101625.03;;;36.60;27.56
29839;BME280;18669;53.356;-1.464;2022-07-10T10:25:57;101609.63;;;36.82;26.38
29839;BME280;18669;53.356;-1.464;2022-07-10T10:28:42;101585.56;;;36.69;26.79
29839;BME280;18669;53.356;-1.464;2022-07-10T10:31:54;101614.81;;;36.77;26.44
29839;BME280;18669;53.356;-1.464;2022-07-10T10:35:06;101605.06;;;37.44;27.33
29839;BME280;18669;53.356;-1.464;2022-07-10T10:38:11;101584.84;;;38.78;25.67
29839;BME280;18669;53.356;-1.464;2022-07-10T10:44:32;101594.19;;;38.84;25.02
29839;BME280;18669;53.356;-1.464;2022-07-10T10:48:09;101584.22;;;38.40;24.91
29839;BME280;18669;53.356;-1.464;2022-07-10T10:50:58;101585.22;;;38.75;25.65
29839;BME280;18669;53.356;-1.464;2022-07-10T10:59:07;101578.13;;;40.64;23.35
29839;BME280;18669;53.356;-1.464;2022-07-10T11:06:02;101576.47;;;41.43;23.68
29839;BME280;18669;53.356;-1.464;2022-07-10T11:13:24;101563.34;;;41.25;23.65
29839;BME280;18669;53.356;-1.464;2022-07-10T11:16:38;101566.69;;;39.98;23.39
29839;BME280;18669;53.356;-1.464;2022-07-10T11:33:15;101542.06;;;42.12;22.47
29839;BME280;18669;53.356;-1.464;2022-07-10T11:35:45;101547.97;;;41.70;21.59
29839;BME280;18669;53.356;-1.464;2022-07-10T11:38:12;101549.50;;;41.45;22.23
29839;BME280;18669;53.356;-1.464;2022-07-10T11:40:42;101541.41;;;41.51;22.43
29839;BME280;18669;53.356;-1.464;2022-07-10T11:51:28;101543.16;;;41.31;21.71
29839;BME280;18669;53.356;-1.464;2022-07-10T12:04:48;101518.84;;;41.74;21.28
29839;BME280;18669;53.356;-1.464;2022-07-10T12:07:21;101526.16;;;41.48;21.43
29839;BME280;18669;53.356;-1.464;2022-07-10T12:10:06;101525.72;;;41.38;22.58
29839;BME280;18669;53.356;-1.464;2022-07-10T12:12:46;101525.72;;;41.44;21.56
29839;BME280;18669;53.356;-1.464;2022-07-10T12:18:35;101520.88;;;43.58;20.88
29839;BME280;18669;53.356;-1.464;2022-07-10T12:21:15;101516.00;;;44.09;20.56
29839;BME280;18669;53.356;-1.464;2022-07-10T12:42:09;101504.59;;;45.31;19.92
29839;BME280;18669;53.356;-1.464;2022-07-10T12:45:21;101492.84;;;45.41;18.81
29839;BME280;18669;53.356;-1.464;2022-07-10T12:47:57;101505.56;;;45.37;20.58
29839;BME280;18669;53.356;-1.464;2022-07-10T12:50:34;101504.50;;;43.75;20.59
29839;BME280;18669;53.356;-1.464;2022-07-10T12:53:50;101505.19;;;41.13;22.81
29839;BME280;18669;53.356;-1.464;2022-07-10T12:57:25;101508.31;;;38.24;25.57
29839;BME280;18669;53.356;-1.464;2022-07-10T13:03:27;101497.31;;;35.06;29.49
29839;BME280;18669;53.356;-1.464;2022-07-10T13:09:55;101478.03;;;34.99;30.30
29839;BME280;18669;53.356;-1.464;2022-07-10T13:20:03;101498.78;;;42.63;22.12
29839;BME280;18669;53.356;-1.464;2022-07-10T13:23:17;101495.28;;;43.00;21.19
29839;BME280;18669;53.356;-1.464;2022-07-10T13:25:58;101484.31;;;43.30;21.07
29839;BME280;18669;53.356;-1.464;2022-07-10T13:28:28;101469.94;;;43.77;21.07
29839;BME280;18669;53.356;-1.464;2022-07-10T13:30:55;101491.53;;;44.48;20.42
29839;BME280;18669;53.356;-1.464;2022-07-10T13:33:34;101484.97;;;44.31;19.66
29839;BME280;18669;53.356;-1.464;2022-07-10T13:36:52;101489.22;;;40.35;22.17
29839;BME280;18669;53.356;-1.464;2022-07-10T13:39:22;101482.78;;;39.52;23.72
29839;BME280;18669;53.356;-1.464;2022-07-10T13:41:52;101474.72;;;41.47;22.03
29839;BME280;18669;53.356;-1.464;2022-07-10T13:44:22;101480.03;;;42.90;20.51
29839;BME280;18669;53.356;-1.464;2022-07-10T13:47:14;101474.03;;;43.37;20.55
29839;BME280;18669;53.356;-1.464;2022-07-10T13:50:44;101473.69;;;43.27;20.10
29839;BME280;18669;53.356;-1.464;2022-07-10T13:57:40;101490.41;;;38.71;24.70
29839;BME280;18669;53.356;-1.464;2022-07-10T14:00:37;101487.69;;;36.54;26.83
29839;BME280;18669;53.356;-1.464;2022-07-10T14:03:10;101454.47;;;38.08;25.93
29839;BME280;18669;53.356;-1.464;2022-07-10T14:05:43;101475.69;;;39.78;23.95
29839;BME280;18669;53.356;-1.464;2022-07-10T14:08:12;101471.91;;;41.67;22.36
29839;BME280;18669;53.356;-1.464;2022-07-10T14:10:42;101463.84;;;43.31;21.41
29839;BME280;18669;53.356;-1.464;2022-07-10T14:13:10;101467.47;;;44.00;20.45
29839;BME280;18669;53.356;-1.464;2022-07-10T14:15:39;101472.97;;;44.84;19.33
29839;BME280;18669;53.356;-1.464;2022-07-10T14:18:10;101468.56;;;45.48;18.89
29839;BME280;18669;53.356;-1.464;2022-07-10T14:20:41;101470.81;;;46.72;18.59
29839;BME280;18669;53.356;-1.464;2022-07-10T14:23:33;101470.75;;;47.06;17.30
29839;BME280;18669;53.356;-1.464;2022-07-10T14:26:11;101473.34;;;47.30;17.06
29839;BME280;18669;53.356;-1.464;2022-07-10T14:28:44;101469.56;;;47.64;16.97
29839;BME280;18669;53.356;-1.464;2022-07-10T14:31:11;101469.84;;;47.62;16.92
29839;BME280;18669;53.356;-1.464;2022-07-10T14:33:38;101462.47;;;46.55;17.12
29839;BME280;18669;53.356;-1.464;2022-07-10T14:36:07;101465.00;;;46.91;16.96
29839;BME280;18669;53.356;-1.464;2022-07-10T14:38:34;101471.41;;;46.57;16.76
29839;BME280;18669;53.356;-1.464;2022-07-10T14:41:04;101459.00;;;47.21;16.81
29839;BME280;18669;53.356;-1.464;2022-07-10T14:43:51;101466.13;;;47.34;15.95
29839;BME280;18669;53.356;-1.464;2022-07-10T14:57:37;101460.03;;;47.87;15.73
29839;BME280;18669;53.356;-1.464;2022-07-10T15:00:40;101449.41;;;48.12;15.28
29839;BME280;18669;53.356;-1.464;2022-07-10T15:03:07;101448.13;;;48.62;15.60
29839;BME280;18669;53.356;-1.464;2022-07-10T15:05:34;101456.09;;;48.43;15.15
29839;BME280;18669;53.356;-1.464;2022-07-10T15:08:01;101453.59;;;48.42;15.18
29839;BME280;18669;53.356;-1.464;2022-07-10T15:10:35;101438.00;;;47.58;15.11
29839;BME280;18669;53.356;-1.464;2022-07-10T15:13:04;101423.50;;;47.34;15.54
29839;BME280;18669;53.356;-1.464;2022-07-10T15:16:07;101439.13;;;47.85;15.72
29839;BME280;18669;53.356;-1.464;2022-07-10T15:18:46;101431.63;;;48.56;14.94
29839;BME280;18669;53.356;-1.464;2022-07-10T15:21:42;101430.84;;;48.65;14.28
29839;BME280;18669;53.356;-1.464;2022-07-10T15:24:56;101431.47;;;48.73;15.22
29839;BME280;18669;53.356;-1.464;2022-07-10T15:28:13;101428.75;;;47.80;14.58
29839;BME280;18669;53.356;-1.464;2022-07-10T15:34:50;101426.47;;;47.49;14.85
29839;BME280;18669;53.356;-1.464;2022-07-10T15:38:31;101416.88;;;47.62;14.58
29839;BME280;18669;53.356;-1.464;2022-07-10T15:53:10;101408.31;;;35.43;24.70
29839;BME280;18669;53.356;-1.464;2022-07-10T15:55:40;101410.53;;;34.75;25.98
29839;BME280;18669;53.356;-1.464;2022-07-10T15:58:12;101403.50;;;34.06;27.06
29839;BME280;18669;53.356;-1.464;2022-07-10T16:00:45;101393.53;;;33.72;28.66
29839;BME280;18669;53.356;-1.464;2022-07-10T16:03:24;101417.59;;;33.42;28.36
29839;BME280;18669;53.356;-1.464;2022-07-10T16:06:24;101406.34;;;33.10;28.60
29839;BME280;18669;53.356;-1.464;2022-07-10T16:09:01;101416.25;;;32.67;29.31
29839;BME280;18669;53.356;-1.464;2022-07-10T16:11:31;101402.94;;;32.64;30.34
29839;BME280;18669;53.356;-1.464;2022-07-10T16:14:07;101391.34;;;32.62;30.26
29839;BME280;18669;53.356;-1.464;2022-07-10T16:16:39;101401.16;;;32.54;29.86
29839;BME280;18669;53.356;-1.464;2022-07-10T16:19:09;101391.44;;;32.16;29.53
29839;BME280;18669;53.356;-1.464;2022-07-10T16:22:03;101390.91;;;32.12;29.15
29839;BME280;18669;53.356;-1.464;2022-07-10T16:24:33;101408.38;;;32.09;30.11
29839;BME280;18669;53.356;-1.464;2022-07-10T16:27:29;101388.63;;;32.07;30.75
29839;BME280;18669;53.356;-1.464;2022-07-10T16:30:40;101386.50;;;31.83;30.45
29839;BME280;18669;53.356;-1.464;2022-07-10T16:33:25;101387.41;;;32.02;30.68
29839;BME280;18669;53.356;-1.464;2022-07-10T16:37:02;101389.50;;;31.90;31.30
29839;BME280;18669;53.356;-1.464;2022-07-10T16:40:00;101380.00;;;31.76;31.03
29839;BME280;18669;53.356;-1.464;2022-07-10T16:42:37;101377.28;;;31.76;31.44
29839;BME280;18669;53.356;-1.464;2022-07-10T16:45:07;101385.38;;;31.58;30.98
29839;BME280;18669;53.356;-1.464;2022-07-10T16:47:59;101379.91;;;31.86;31.65
29839;BME280;18669;53.356;-1.464;2022-07-10T16:50:35;101367.22;;;31.76;31.28
29839;BME280;18669;53.356;-1.464;2022-07-10T16:53:05;101370.81;;;31.67;31.48
29839;BME280;18669;53.356;-1.464;2022-07-10T16:55:41;101371.13;;;31.74;32.21
29839;BME280;18669;53.356;-1.464;2022-07-10T16:58:14;101374.25;;;31.69;31.69
29839;BME280;18669;53.356;-1.464;2022-07-10T17:01:14;101380.69;;;31.68;31.79
29839;BME280;18669;53.356;-1.464;2022-07-10T17:03:55;101365.50;;;31.75;32.44
29839;BME280;18669;53.356;-1.464;2022-07-10T17:06:22;101343.97;;;31.82;32.31
29839;BME280;18669;53.356;-1.464;2022-07-10T17:09:09;101353.56;;;32.04;32.67
29839;BME280;18669;53.356;-1.464;2022-07-10T17:11:39;101370.66;;;32.14;32.48
29839;BME280;18669;53.356;-1.464;2022-07-10T17:14:08;101351.63;;;31.96;32.88
29839;BME280;18669;53.356;-1.464;2022-07-10T17:16:46;101367.16;;;31.86;31.99
29839;BME280;18669;53.356;-1.464;2022-07-10T17:20:10;101356.94;;;31.42;32.72
29839;BME280;18669;53.356;-1.464;2022-07-10T17:26:38;101351.91;;;31.19;34.40
29839;BME280;18669;53.356;-1.464;2022-07-10T17:31:52;101361.28;;;30.97;35.81
29839;BME280;18669;53.356;-1.464;2022-07-10T17:34:18;101347.34;;;30.43;35.91
29839;BME280;18669;53.356;-1.464;2022-07-10T17:36:44;101351.50;;;30.47;37.35
29839;BME280;18669;53.356;-1.464;2022-07-10T17:39:10;101354.34;;;30.45;36.31
29839;BME280;18669;53.356;-1.464;2022-07-10T17:41:37;101353.91;;;30.40;36.58
29839;BME280;18669;53.356;-1.464;2022-07-10T17:44:05;101360.19;;;30.50;36.91
29839;BME280;18669;53.356;-1.464;2022-07-10T17:46:31;101356.22;;;30.35;36.64
29839;BME280;18669;53.356;-1.464;2022-07-10T17:48:58;101354.22;;;30.37;37.78
29839;BME280;18669;53.356;-1.464;2022-07-10T17:51:24;101340.06;;;30.33;37.44
29839;BME280;18669;53.356;-1.464;2022-07-10T17:53:50;101357.50;;;30.41;36.89
29839;BME280;18669;53.356;-1.464;2022-07-10T17:56:16;101354.34;;;30.35;36.76
29839;BME280;18669;53.356;-1.464;2022-07-10T17:58:42;101355.22;;;30.16;37.03
29839;BME280;18669;53.356;-1.464;2022-07-10T18:01:09;101359.81;;;30.16;37.78
29839;BME280;18669;53.356;-1.464;2022-07-10T18:03:35;101353.50;;;30.15;37.38
29839;BME280;18669;53.356;-1.464;2022-07-10T18:06:01;101356.22;;;30.15;37.87
29839;BME280;18669;53.356;-1.464;2022-07-10T18:08:27;101355.22;;;30.06;37.24
29839;BME280;18669;53.356;-1.464;2022-07-10T18:10:53;101349.38;;;30.01;38.43
29839;BME280;18669;53.356;-1.464;2022-07-10T18:13:20;101360.22;;;30.01;37.41
29839;BME280;18669;53.356;-1.464;2022-07-10T18:15:46;101356.47;;;29.92;38.02
29839;BME280;18669;53.356;-1.464;2022-07-10T18:18:12;101360.03;;;29.93;38.58
29839;BME280;18669;53.356;-1.464;2022-07-10T18:20:39;101356.75;;;29.89;38.09
29839;BME280;18669;53.356;-1.464;2022-07-10T18:23:05;101358.88;;;29.76;38.35
29839;BME280;18669;53.356;-1.464;2022-07-10T18:25:33;101360.13;;;29.72;38.76
29839;BME280;18669;53.356;-1.464;2022-07-10T18:27:59;101357.69;;;29.59;39.02